This is the latest recevied weather packets stored in our database for station/object KI4HRG. If no packets are shown the sender has not sent any weather packets the latest 10 day(s).
| Time | Temp. | Humidity | Pressure | Rain* | Wind** | Luminosity | Snow |
|---|---|---|---|---|---|---|---|
| 1777827517 | 20° C | 40% | 1022.1 hPa | 0 mm | - | 734 W/m² | - |
| 1777827215 | 20° C | 38% | 1021.8 hPa | 0 mm | - | 724 W/m² | - |
| 1777826911 | 20° C | 39% | 1022 hPa | 0 mm | - | 721 W/m² | - |
| 1777826609 | 19.44° C | 40% | 1022 hPa | 0 mm | - | 727 W/m² | - |
| 1777826305 | 18.89° C | 42% | 1022.1 hPa | 0 mm | - | 727 W/m² | - |
| 1777826003 | 18.89° C | 41% | 1022.1 hPa | 0 mm | - | 722 W/m² | - |
| 1777825699 | 19.44° C | 41% | 1022 hPa | 0 mm | - | 713 W/m² | - |
| 1777825397 | 18.33° C | 44% | 1022.1 hPa | 0 mm | - | 730 W/m² | - |
| 1777825094 | 18.89° C | 42% | 1022.3 hPa | 0 mm | - | 761 W/m² | - |
| 1777824790 | 18.89° C | 43% | 1022.1 hPa | 0 mm | - | 746 W/m² | - |
| 1777824487 | 18.89° C | 44% | 1022.3 hPa | 0 mm | - | 734 W/m² | - |
| 1777824183 | 18.89° C | 43% | 1022.3 hPa | 0 mm | - | 732 W/m² | - |
| 1777823879 | 18.33° C | 44% | 1022.5 hPa | 0 mm | - | 739 W/m² | - |
| 1777823577 | 17.78° C | 47% | 1022.3 hPa | 0 mm | - | 735 W/m² | - |
| 1777823273 | 17.78° C | 46% | 1022.3 hPa | 0 mm | - | 735 W/m² | - |
| 1777822971 | 17.78° C | 45% | 1022.4 hPa | 0 mm | - | 721 W/m² | - |
| 1777822669 | 18.89° C | 45% | 1022.5 hPa | 0 mm | - | 724 W/m² | - |
| 1777822367 | 17.78° C | 48% | 1022.2 hPa | 0 mm | - | 735 W/m² | - |
| 1777822064 | 17.78° C | 49% | 1022.3 hPa | 0 mm | - | 745 W/m² | - |
| 1777821762 | 17.78° C | 49% | 1022.3 hPa | 0 mm | - | 750 W/m² | - |
| 1777821459 | 17.78° C | 48% | 1022.4 hPa | 0 mm | - | 740 W/m² | - |
| 1777821156 | 17.22° C | 50% | 1022.3 hPa | 0 mm | - | 775 W/m² | - |
| 1777820853 | 17.22° C | 50% | 1022.4 hPa | 0 mm | - | 782 W/m² | - |
| 1777820549 | 17.22° C | 53% | 1022.2 hPa | 0 mm | - | 768 W/m² | - |
| 1777820246 | 17.22° C | 52% | 1022.1 hPa | 0 mm | - | 722 W/m² | - |
* Rain latest hour (hover to see other rain measurements)
** Current wind speed in m/s (hover to see current wind gust speed)